createdAt,value
2022-11-05T00:00:36.409Z,100077.03
2022-11-05T00:03:22.062Z,100085.63
2022-11-05T00:06:11.303Z,100082.63
2022-11-05T00:08:56.902Z,100087.00
2022-11-05T00:11:43.699Z,100099.50
2022-11-05T00:14:29.164Z,100101.75
2022-11-05T00:16:55.768Z,100099.31
2022-11-05T00:19:22.513Z,100102.06
2022-11-05T00:22:09.515Z,100095.38
2022-11-05T00:24:55.791Z,100091.75
2022-11-05T00:27:23.225Z,100100.69
2022-11-05T00:29:49.964Z,100097.81
2022-11-05T00:32:16.517Z,100098.84
2022-11-05T00:34:43.076Z,100096.72
2022-11-05T00:37:09.802Z,100093.25
2022-11-05T00:39:36.436Z,100099.81
2022-11-05T00:42:26.337Z,100100.41
2022-11-05T00:45:01.506Z,100104.06
2022-11-05T00:47:51.172Z,100117.56
2022-11-05T00:50:21.361Z,100121.97
2022-11-05T00:52:55.557Z,100122.53
2022-11-05T00:55:28.733Z,100123.56
2022-11-05T00:58:00.700Z,100125.44
2022-11-05T01:00:29.982Z,100132.16
2022-11-05T01:03:01.766Z,100137.84
2022-11-05T01:05:34.029Z,100140.13
2022-11-05T01:08:04.677Z,100130.53
2022-11-05T01:10:31.579Z,100129.72
2022-11-05T01:12:59.055Z,100129.50
2022-11-05T01:15:25.641Z,100128.84
2022-11-05T01:17:52.501Z,100122.97
2022-11-05T01:20:19.147Z,100127.69
2022-11-05T01:22:45.635Z,100123.59
2022-11-05T01:25:12.310Z,100118.72
2022-11-05T01:27:39.167Z,100133.78
2022-11-05T01:30:07.980Z,100140.09
2022-11-05T01:32:36.247Z,100132.19
2022-11-05T01:35:07.187Z,100135.84
2022-11-05T01:37:35.079Z,100139.44
2022-11-05T01:40:02.169Z,100140.50
2022-11-05T01:42:32.417Z,100135.22
2022-11-05T01:45:04.000Z,100138.19
2022-11-05T01:47:49.063Z,100136.84
2022-11-05T01:50:27.321Z,100137.19
2022-11-05T01:53:00.802Z,100136.00
2022-11-05T01:55:31.498Z,100134.47
2022-11-05T01:58:00.421Z,100137.84
2022-11-05T02:00:28.138Z,100133.53
2022-11-05T02:02:54.884Z,100136.63
2022-11-05T02:05:22.250Z,100135.16
2022-11-05T02:07:49.676Z,100137.63
2022-11-05T02:10:18.128Z,100130.81
2022-11-05T02:12:48.549Z,100140.06
2022-11-05T02:15:35.742Z,100146.41
2022-11-05T02:18:04.944Z,100144.53
2022-11-05T02:20:54.408Z,100141.66
2022-11-05T02:23:58.527Z,100145.50
2022-11-05T02:26:37.301Z,100137.81
2022-11-05T02:29:29.388Z,100140.88
2022-11-05T02:32:04.989Z,100147.81
2022-11-05T02:34:37.493Z,100154.25
2022-11-05T02:37:15.622Z,100161.28
2022-11-05T02:40:11.501Z,100165.53
2022-11-05T02:42:56.763Z,100174.09
2022-11-05T02:45:41.812Z,100184.00
2022-11-05T02:48:24.462Z,100182.63
2022-11-05T02:51:25.243Z,100186.91
2022-11-05T02:54:01.925Z,100196.25
2022-11-05T02:56:39.329Z,100197.09
2022-11-05T02:59:05.825Z,100202.16
2022-11-05T03:01:32.514Z,100194.91
2022-11-05T03:04:04.835Z,100199.41
2022-11-05T03:06:52.707Z,100195.19
2022-11-05T03:09:38.018Z,100200.53
2022-11-05T03:12:16.836Z,100205.25
2022-11-05T03:15:01.911Z,100208.28
2022-11-05T03:17:36.878Z,100210.28
2022-11-05T03:20:24.113Z,100208.69
2022-11-05T03:23:26.379Z,100219.47
2022-11-05T03:26:05.525Z,100217.94
2022-11-05T03:28:35.613Z,100216.59
2022-11-05T03:31:04.628Z,100217.88
2022-11-05T03:33:38.545Z,100226.41
2022-11-05T03:36:16.248Z,100238.38
2022-11-05T03:38:46.892Z,100238.53
2022-11-05T03:41:17.429Z,100241.03
2022-11-05T03:43:50.862Z,100245.53
2022-11-05T03:46:24.627Z,100247.56
2022-11-05T03:48:55.835Z,100248.19
2022-11-05T03:51:32.056Z,100241.69
2022-11-05T03:54:01.155Z,100244.72
2022-11-05T03:56:38.692Z,100248.00
2022-11-05T03:59:07.674Z,100249.38
2022-11-05T04:01:36.996Z,100256.56
2022-11-05T04:04:07.897Z,100262.41
2022-11-05T04:06:53.840Z,100272.19
2022-11-05T04:09:41.150Z,100269.75
2022-11-05T04:12:29.199Z,100289.78
2022-11-05T04:14:56.284Z,100284.16
2022-11-05T04:17:22.839Z,100286.47
2022-11-05T04:20:10.925Z,100289.09
2022-11-05T04:23:01.836Z,100300.88
2022-11-05T04:25:37.703Z,100299.25
2022-11-05T04:28:06.386Z,100300.22
2022-11-05T04:30:41.657Z,100300.66
2022-11-05T04:33:12.322Z,100300.09
2022-11-05T04:35:42.981Z,100303.16
2022-11-05T04:38:13.329Z,100305.81
2022-11-05T04:40:40.664Z,100297.47
2022-11-05T04:43:15.056Z,100301.34
2022-11-05T04:45:44.818Z,100304.53
2022-11-05T04:48:13.444Z,100303.16
2022-11-05T04:50:40.118Z,100303.56
2022-11-05T04:53:06.913Z,100307.00
2022-11-05T04:55:35.434Z,100293.59
2022-11-05T04:58:02.044Z,100303.13
2022-11-05T05:00:28.794Z,100303.13
2022-11-05T05:02:55.410Z,100301.94
2022-11-05T05:05:23.197Z,100312.53
2022-11-05T05:07:49.989Z,100309.06
2022-11-05T05:10:16.852Z,100307.22
2022-11-05T05:12:43.566Z,100305.59
2022-11-05T05:15:10.526Z,100312.69
2022-11-05T05:17:37.154Z,100310.72
2022-11-05T05:20:22.620Z,100306.44
2022-11-05T05:22:55.694Z,100316.59
2022-11-05T05:25:22.728Z,100309.69
2022-11-05T05:27:49.372Z,100304.19
2022-11-05T05:30:16.154Z,100313.72
2022-11-05T05:32:44.831Z,100317.81
2022-11-05T05:35:16.013Z,100325.53
2022-11-05T05:37:43.007Z,100330.25
2022-11-05T05:40:10.303Z,100325.34
2022-11-05T05:42:42.684Z,100332.09
2022-11-05T05:45:12.132Z,100340.84
2022-11-05T05:47:38.872Z,100346.75
2022-11-05T05:50:05.870Z,100356.72
2022-11-05T05:52:34.517Z,100368.34
2022-11-05T05:55:03.914Z,100373.63
2022-11-05T05:57:31.882Z,100373.03
2022-11-05T06:00:01.983Z,100369.97
2022-11-05T06:02:32.720Z,100373.63
2022-11-05T06:04:59.703Z,100369.16
2022-11-05T06:07:26.350Z,100365.88
2022-11-05T06:09:52.956Z,100372.00
2022-11-05T06:12:19.438Z,100380.34
2022-11-05T06:14:45.946Z,100388.50
2022-11-05T06:17:15.771Z,100393.38
2022-11-05T06:19:44.443Z,100396.06
2022-11-05T06:22:11.243Z,100402.94
2022-11-05T06:24:38.153Z,100409.09
2022-11-05T06:27:05.053Z,100406.63
2022-11-05T06:29:31.609Z,100413.16
2022-11-05T06:31:58.058Z,100415.22
2022-11-05T06:34:24.629Z,100420.09
2022-11-05T06:36:51.202Z,100427.63
2022-11-05T06:39:17.689Z,100437.41
2022-11-05T06:42:12.027Z,100432.94
2022-11-05T06:44:31.227Z,100436.59
2022-11-05T06:46:59.814Z,100441.91
2022-11-05T06:49:26.606Z,100443.69
2022-11-05T06:51:55.907Z,100445.06
2022-11-05T06:54:22.384Z,100452.47
2022-11-05T06:56:48.834Z,100450.03
2022-11-05T06:59:15.634Z,100458.19
2022-11-05T07:01:42.407Z,100466.53
2022-11-05T07:04:08.966Z,100472.66
2022-11-05T07:06:37.095Z,100472.56
2022-11-05T07:09:04.465Z,100483.25
2022-11-05T07:11:42.809Z,100489.56
2022-11-05T07:14:09.316Z,100496.50
2022-11-05T07:16:35.905Z,100501.00
2022-11-05T07:19:02.731Z,100498.72
2022-11-05T07:21:29.481Z,100508.56
2022-11-05T07:23:55.962Z,100509.38
2022-11-05T07:26:22.440Z,100513.06
2022-11-05T07:28:48.981Z,100509.84
2022-11-05T07:31:15.614Z,100510.06
2022-11-05T07:33:42.173Z,100519.59
2022-11-05T07:36:09.074Z,100523.84
2022-11-05T07:38:35.613Z,100525.72
2022-11-05T07:41:02.152Z,100520.66
2022-11-05T07:43:28.712Z,100523.00
2022-11-05T07:45:55.229Z,100520.09
2022-11-05T07:48:21.770Z,100526.84
2022-11-05T07:50:56.954Z,100534.81
2022-11-05T07:53:23.492Z,100528.19
2022-11-05T07:55:52.578Z,100535.03
2022-11-05T07:58:25.154Z,100533.22
2022-11-05T08:00:51.807Z,100541.91
2022-11-05T08:03:19.432Z,100537.72
2022-11-05T08:05:48.093Z,100542.50
2022-11-05T08:08:17.248Z,100544.63
2022-11-05T08:10:44.185Z,100538.22
2022-11-05T08:13:12.070Z,100555.44
2022-11-05T08:15:39.342Z,100549.16
2022-11-05T08:18:09.085Z,100554.81
2022-11-05T08:20:36.958Z,100565.66
2022-11-05T08:23:03.570Z,100567.75
2022-11-05T08:25:35.254Z,100573.63
2022-11-05T08:28:04.612Z,100574.31
2022-11-05T08:30:32.321Z,100580.13
2022-11-05T08:33:04.296Z,100590.00
2022-11-05T08:35:30.960Z,100585.47
2022-11-05T08:38:02.781Z,100592.00
2022-11-05T08:40:31.555Z,100588.13
2022-11-05T08:43:04.537Z,100596.31
2022-11-05T08:45:32.052Z,100601.34
2022-11-05T08:47:59.917Z,100595.91
2022-11-05T08:50:29.438Z,100607.13
2022-11-05T08:52:59.913Z,100605.41
2022-11-05T08:55:29.205Z,100611.34
2022-11-05T08:58:04.856Z,100613.59
2022-11-05T09:00:34.417Z,100613.47
2022-11-05T09:03:02.743Z,100620.56
2022-11-05T09:05:31.227Z,100619.84
2022-11-05T09:08:01.338Z,100626.13
2022-11-05T09:10:29.081Z,100625.19
2022-11-05T09:12:56.205Z,100634.53
2022-11-05T09:15:23.531Z,100628.16
2022-11-05T09:17:53.309Z,100637.59
2022-11-05T09:20:19.851Z,100635.13
2022-11-05T09:22:49.944Z,100639.97
2022-11-05T09:25:16.703Z,100635.25
2022-11-05T09:27:44.030Z,100635.44
2022-11-05T09:30:14.903Z,100639.91
2022-11-05T09:32:42.187Z,100642.13
2022-11-05T09:35:10.033Z,100649.09
2022-11-05T09:37:40.046Z,100647.91
2022-11-05T09:40:07.248Z,100647.81
2022-11-05T09:42:50.281Z,100646.84
2022-11-05T09:45:22.579Z,100651.47
2022-11-05T09:48:01.381Z,100653.16
2022-11-05T09:50:35.994Z,100659.88
2022-11-05T09:53:04.575Z,100660.66
2022-11-05T09:55:41.407Z,100670.56
2022-11-05T09:58:22.122Z,100657.75
2022-11-05T10:00:57.237Z,100651.94
2022-11-05T10:03:28.125Z,100651.47
2022-11-05T10:06:05.961Z,100652.56
2022-11-05T10:08:38.593Z,100653.75
2022-11-05T10:11:16.556Z,100651.34
2022-11-05T10:13:51.484Z,100645.94
2022-11-05T10:16:28.735Z,100653.19
2022-11-05T10:19:07.450Z,100648.19
2022-11-05T10:22:05.641Z,100652.75
2022-11-05T10:24:29.745Z,100646.88
2022-11-05T10:26:57.487Z,100656.75
2022-11-05T10:29:30.340Z,100645.94
2022-11-05T10:31:59.109Z,100649.25
2022-11-05T10:34:34.904Z,100644.44
2022-11-05T10:37:01.958Z,100640.88
2022-11-05T10:39:36.349Z,100646.03
2022-11-05T10:42:24.342Z,100642.66
2022-11-05T10:45:06.921Z,100645.41
2022-11-05T10:47:52.396Z,100645.19
2022-11-05T10:50:23.706Z,100647.41
2022-11-05T10:52:55.984Z,100643.53
2022-11-05T10:55:28.422Z,100655.38
2022-11-05T10:58:01.322Z,100649.19
2022-11-05T11:00:28.549Z,100654.84
2022-11-05T11:03:01.255Z,100655.09
2022-11-05T11:05:34.002Z,100656.19
2022-11-05T11:08:12.388Z,100653.81
2022-11-05T11:10:50.420Z,100659.09
2022-11-05T11:13:26.177Z,100656.38
2022-11-05T11:15:53.590Z,100660.63
2022-11-05T11:18:41.745Z,100662.19
2022-11-05T11:21:27.215Z,100666.63
2022-11-05T11:23:54.831Z,100658.81
2022-11-05T11:26:24.739Z,100664.44
2022-11-05T11:29:26.348Z,100666.47
2022-11-05T11:32:01.044Z,100667.13
2022-11-05T11:34:35.042Z,100663.28
2022-11-05T11:37:12.904Z,100666.03
2022-11-05T11:39:54.686Z,100662.72
2022-11-05T11:42:33.928Z,100655.75
2022-11-05T11:45:09.169Z,100673.91
2022-11-05T11:47:35.838Z,100662.13
2022-11-05T11:50:03.131Z,100658.09
2022-11-05T11:52:35.698Z,100672.91
2022-11-05T11:55:22.695Z,100675.69
2022-11-05T11:57:52.331Z,100670.78
2022-11-05T12:00:20.807Z,100670.44
2022-11-05T12:03:18.979Z,100662.78
2022-11-05T12:06:01.736Z,100667.44
2022-11-05T12:09:06.225Z,100677.69
2022-11-05T12:11:52.483Z,100669.22
2022-11-05T12:14:46.190Z,100675.59
2022-11-05T12:17:21.972Z,100668.06
2022-11-05T12:19:51.318Z,100663.19
2022-11-05T12:22:17.836Z,100668.34
2022-11-05T12:25:02.499Z,100658.75
2022-11-05T12:27:37.839Z,100665.69
2022-11-05T12:30:20.092Z,100654.94
2022-11-05T12:33:08.882Z,100656.13
2022-11-05T12:35:58.271Z,100649.34
2022-11-05T12:38:43.598Z,100653.03
2022-11-05T12:41:52.850Z,100651.31
2022-11-05T12:45:02.426Z,100654.81
2022-11-05T12:47:31.911Z,100648.81
2022-11-05T12:50:16.799Z,100649.84
2022-11-05T12:53:31.074Z,100651.88
2022-11-05T12:56:02.541Z,100659.84
2022-11-05T12:58:35.762Z,100652.50
2022-11-05T13:01:15.964Z,100647.03
2022-11-05T13:03:47.032Z,100653.53
2022-11-05T13:06:17.329Z,100644.16
2022-11-05T13:08:47.995Z,100640.41
2022-11-05T13:11:20.552Z,100646.56
2022-11-05T13:14:18.366Z,100639.78
2022-11-05T13:16:50.722Z,100645.13
2022-11-05T13:19:33.213Z,100649.59
2022-11-05T13:22:14.655Z,100661.50
2022-11-05T13:24:50.330Z,100662.34
2022-11-05T13:27:25.728Z,100656.31
2022-11-05T13:30:07.193Z,100658.03
2022-11-05T13:32:41.334Z,100660.63
2022-11-05T13:35:17.204Z,100657.97
2022-11-05T13:38:06.021Z,100668.88
2022-11-05T13:40:49.171Z,100663.28
2022-11-05T13:43:40.991Z,100665.03
2022-11-05T13:46:51.288Z,100667.22
2022-11-05T13:49:41.734Z,100665.66
2022-11-05T13:52:31.885Z,100669.91
2022-11-05T13:55:15.358Z,100674.88
2022-11-05T13:57:57.812Z,100669.44
2022-11-05T14:00:29.242Z,100668.91
2022-11-05T14:03:14.197Z,100676.34
2022-11-05T14:05:43.049Z,100679.59
2022-11-05T14:08:12.829Z,100682.31
2022-11-05T14:10:47.589Z,100681.63
2022-11-05T14:13:31.943Z,100672.56
2022-11-05T14:16:09.125Z,100684.28
2022-11-05T14:18:44.610Z,100681.66
2022-11-05T14:21:32.872Z,100689.28
2022-11-05T14:24:27.903Z,100687.50
2022-11-05T14:27:03.472Z,100692.91
2022-11-05T14:29:56.505Z,100693.94
2022-11-05T14:32:44.130Z,100693.31
2022-11-05T14:35:16.981Z,100694.41
2022-11-05T14:38:27.073Z,100694.75
2022-11-05T14:41:04.011Z,100689.03
2022-11-05T14:43:34.047Z,100689.63
2022-11-05T14:46:10.657Z,100694.59
2022-11-05T14:48:37.652Z,100691.84
2022-11-05T14:51:38.132Z,100695.38
2022-11-05T14:54:07.090Z,100712.00
2022-11-05T14:56:56.354Z,100716.94
2022-11-05T14:59:29.235Z,100710.84
2022-11-05T15:02:03.853Z,100700.03
2022-11-05T15:04:37.111Z,100709.16
2022-11-05T15:07:03.766Z,100711.50
2022-11-05T15:09:59.746Z,100705.72
2022-11-05T15:12:46.699Z,100709.88
2022-11-05T15:15:21.422Z,100707.84
2022-11-05T15:17:51.321Z,100710.44
2022-11-05T15:20:22.182Z,100709.38
2022-11-05T15:22:55.174Z,100705.94
2022-11-05T15:25:31.149Z,100705.56
2022-11-05T15:28:10.138Z,100702.25
2022-11-05T15:30:37.130Z,100706.59
2022-11-05T15:33:21.291Z,100711.91
2022-11-05T15:35:47.963Z,100706.72
2022-11-05T15:38:26.417Z,100709.19
2022-11-05T15:41:24.314Z,100706.56
2022-11-05T15:43:51.609Z,100712.28
2022-11-05T15:46:30.243Z,100715.19
2022-11-05T15:49:06.605Z,100713.72
2022-11-05T15:51:33.750Z,100718.72
2022-11-05T15:56:58.146Z,100719.28
2022-11-05T15:59:27.199Z,100723.19
2022-11-05T16:02:02.130Z,100723.78
2022-11-05T16:04:35.224Z,100722.41
2022-11-05T16:07:13.493Z,100724.03
2022-11-05T16:09:43.915Z,100723.63
2022-11-05T16:12:24.203Z,100735.06
2022-11-05T16:15:00.137Z,100728.53
2022-11-05T16:17:31.421Z,100735.69
2022-11-05T16:19:58.157Z,100738.34
2022-11-05T16:22:44.129Z,100740.19
2022-11-05T16:25:31.264Z,100738.53
2022-11-05T16:27:59.910Z,100745.25
2022-11-05T16:30:26.822Z,100741.19
2022-11-05T16:32:54.105Z,100741.56
2022-11-05T16:35:23.414Z,100753.63
2022-11-05T16:37:52.396Z,100747.25
2022-11-05T16:40:25.527Z,100758.09
2022-11-05T16:42:57.660Z,100759.31
2022-11-05T16:45:25.436Z,100763.59
2022-11-05T16:47:55.101Z,100762.09
2022-11-05T16:50:32.646Z,100768.84
2022-11-05T16:52:59.269Z,100771.84
2022-11-05T16:55:26.741Z,100768.56
2022-11-05T16:57:55.755Z,100777.34
2022-11-05T17:00:29.884Z,100778.69
2022-11-05T17:02:56.597Z,100783.38
2022-11-05T17:05:29.400Z,100795.16
2022-11-05T17:07:56.734Z,100796.13
2022-11-05T17:10:26.135Z,100804.06
2022-11-05T17:12:53.889Z,100800.38
2022-11-05T17:15:26.867Z,100801.94
2022-11-05T17:17:56.079Z,100801.47
2022-11-05T17:20:28.984Z,100802.88
2022-11-05T17:22:57.725Z,100809.78
2022-11-05T17:25:25.929Z,100812.66
2022-11-05T17:27:54.449Z,100816.88
2022-11-05T17:30:22.043Z,100816.03
2022-11-05T17:32:49.728Z,100816.88
2022-11-05T17:35:16.562Z,100827.03
2022-11-05T17:37:43.088Z,100826.59
2022-11-05T17:40:14.249Z,100829.78
2022-11-05T17:42:40.725Z,100839.41
2022-11-05T17:45:07.893Z,100834.69
2022-11-05T17:47:34.651Z,100833.97
2022-11-05T17:50:01.116Z,100845.94
2022-11-05T17:52:28.881Z,100834.06
2022-11-05T17:54:55.515Z,100836.16
2022-11-05T17:57:25.112Z,100838.81
2022-11-05T17:59:51.764Z,100842.53
2022-11-05T18:02:18.507Z,100848.94
2022-11-05T18:04:45.644Z,100852.59
2022-11-05T18:07:16.562Z,100847.03
2022-11-05T18:09:43.509Z,100850.97
2022-11-05T18:12:12.398Z,100855.00
2022-11-05T18:14:39.115Z,100861.63
2022-11-05T18:17:05.626Z,100857.91
2022-11-05T18:19:32.394Z,100864.31
2022-11-05T18:25:44.115Z,100865.19
2022-11-05T18:28:14.431Z,100859.72
2022-11-05T18:30:42.042Z,100862.25
2022-11-05T18:33:09.477Z,100861.16
2022-11-05T18:35:45.556Z,100863.47
2022-11-05T18:38:14.320Z,100857.59
2022-11-05T18:40:42.474Z,100860.19
2022-11-05T18:43:11.775Z,100864.22
2022-11-05T18:45:38.934Z,100862.69
2022-11-05T18:48:06.616Z,100866.38
2022-11-05T18:50:33.430Z,100868.78
2022-11-05T18:53:00.313Z,100865.19
2022-11-05T18:55:27.133Z,100873.97
2022-11-05T18:57:57.865Z,100875.97
2022-11-05T19:00:34.494Z,100872.25
2022-11-05T19:03:03.849Z,100879.50
2022-11-05T19:05:30.667Z,100879.06
2022-11-05T19:07:57.954Z,100886.81
2022-11-05T19:10:25.129Z,100891.28
2022-11-05T19:12:52.258Z,100890.78
2022-11-05T19:15:21.392Z,100894.53
2022-11-05T19:17:48.111Z,100905.22
2022-11-05T19:20:15.147Z,100905.84
2022-11-05T19:22:44.930Z,100915.28
2022-11-05T19:25:14.562Z,100909.03
2022-11-05T19:27:42.617Z,100914.47
2022-11-05T19:30:09.755Z,100908.53
2022-11-05T19:32:36.276Z,100906.53
2022-11-05T19:35:02.860Z,100910.06
2022-11-05T19:37:29.390Z,100910.53
2022-11-05T19:39:55.885Z,100916.63
2022-11-05T19:42:22.426Z,100920.47
2022-11-05T19:44:51.122Z,100915.97
2022-11-05T19:47:17.873Z,100918.44
2022-11-05T19:49:45.970Z,100929.59
2022-11-05T19:52:16.561Z,100932.31
2022-11-05T19:54:46.284Z,100929.59
2022-11-05T19:57:13.382Z,100935.41
2022-11-05T19:59:42.686Z,100937.69
2022-11-05T20:02:16.262Z,100945.09
2022-11-05T20:04:43.285Z,100943.81
2022-11-05T20:07:12.828Z,100952.31
2022-11-05T20:09:39.435Z,100952.09
2022-11-05T20:12:06.253Z,100959.13
2022-11-05T20:14:35.871Z,100961.69
2022-11-05T20:17:02.414Z,100964.31
2022-11-05T20:19:29.016Z,100970.00
2022-11-05T20:22:02.038Z,100970.09
2022-11-05T20:24:28.921Z,100972.06
2022-11-05T20:26:59.117Z,100973.91
2022-11-05T20:29:32.139Z,100981.72
2022-11-05T20:32:02.431Z,100988.94
2022-11-05T20:34:36.345Z,100999.59
2022-11-05T20:37:03.261Z,100994.13
2022-11-05T20:39:30.399Z,101000.72
2022-11-05T20:42:02.734Z,100996.38
2022-11-05T20:44:29.351Z,100996.38
2022-11-05T20:46:56.646Z,101006.59
2022-11-05T20:49:25.622Z,101002.13
2022-11-05T20:51:52.848Z,101001.78
2022-11-05T20:54:21.059Z,101012.50
2022-11-05T20:56:48.252Z,101014.41
2022-11-05T20:59:15.028Z,101019.31
2022-11-05T21:01:41.954Z,101017.78
2022-11-05T21:04:08.841Z,101015.53
2022-11-05T21:06:35.861Z,101016.03
2022-11-05T21:09:03.696Z,101016.38
2022-11-05T21:11:50.325Z,101017.69
2022-11-05T21:14:20.194Z,101013.00
2022-11-05T21:16:51.008Z,101018.78
2022-11-05T21:19:24.739Z,101020.56
2022-11-05T21:21:51.352Z,101015.78
2022-11-05T21:24:19.384Z,101025.53
2022-11-05T21:26:47.157Z,101023.06
2022-11-05T21:29:15.335Z,101024.88
2022-11-05T21:31:43.723Z,101022.59
2022-11-05T21:34:10.860Z,101027.97
2022-11-05T21:36:37.604Z,101025.41
2022-11-05T21:39:10.463Z,101026.81
2022-11-05T21:41:44.010Z,101031.25
2022-11-05T21:44:10.571Z,101036.03
2022-11-05T21:46:37.874Z,101027.69
2022-11-05T21:49:04.605Z,101031.78
2022-11-05T21:51:51.745Z,101039.84
2022-11-05T21:54:36.585Z,101038.41
2022-11-05T21:57:27.223Z,101046.25
2022-11-05T21:59:58.805Z,101058.84
2022-11-05T22:02:28.331Z,101047.88
2022-11-05T22:04:57.413Z,101052.34
2022-11-05T22:07:31.040Z,101052.03
2022-11-05T22:09:58.034Z,101037.84
2022-11-05T22:12:25.003Z,101046.69
2022-11-05T22:14:52.287Z,101044.91
2022-11-05T22:17:22.031Z,101043.50
2022-11-05T22:19:48.610Z,101042.88
2022-11-05T22:22:15.342Z,101045.34
2022-11-05T22:24:44.991Z,101042.69
2022-11-05T22:27:14.413Z,101049.28
2022-11-05T22:29:41.081Z,101052.53
2022-11-05T22:32:17.512Z,101052.38
2022-11-05T22:34:46.264Z,101038.19
2022-11-05T22:37:13.641Z,101046.59
2022-11-05T22:39:43.585Z,101046.28
2022-11-05T22:42:10.490Z,101042.34
2022-11-05T22:44:39.466Z,101043.06
2022-11-05T22:47:07.504Z,101047.03
2022-11-05T22:49:34.544Z,101044.53
2022-11-05T22:52:01.380Z,101050.78
2022-11-05T22:54:28.645Z,101047.75
2022-11-05T22:56:57.896Z,101056.38
2022-11-05T22:59:24.696Z,101053.88
2022-11-05T23:01:56.445Z,101052.09
2022-11-05T23:04:26.236Z,101050.53
2022-11-05T23:07:14.229Z,101054.41
2022-11-05T23:10:01.985Z,101054.00
2022-11-05T23:12:34.094Z,101052.38
2022-11-05T23:15:01.866Z,101049.41
2022-11-05T23:17:48.255Z,101054.75
2022-11-05T23:20:37.115Z,101053.19
2022-11-05T23:23:22.326Z,101052.25
2022-11-05T23:25:49.106Z,101056.19
2022-11-05T23:28:22.347Z,101055.47
2022-11-05T23:31:07.436Z,101060.22
2022-11-05T23:33:34.728Z,101061.63
2022-11-05T23:36:20.441Z,101064.22
2022-11-05T23:38:47.236Z,101063.19
2022-11-05T23:41:32.458Z,101069.72
2022-11-05T23:44:20.280Z,101076.38
2022-11-05T23:47:05.250Z,101073.13
2022-11-05T23:49:31.943Z,101083.13
2022-11-05T23:52:00.600Z,101081.97
2022-11-05T23:54:27.296Z,101079.69
2022-11-05T23:56:53.802Z,101078.91
2022-11-05T23:59:20.393Z,101081.34
